sensor_id;sensor_type;location;lat;lon;timestamp;P1;durP1;ratioP1;P2;durP2;ratioP2
67869;SDS011;54673;52.262;6.830;2023-12-22T00:00:46;8.18;;;1.17;;
67869;SDS011;54673;52.262;6.830;2023-12-22T00:03:13;12.80;;;1.17;;
67869;SDS011;54673;52.262;6.830;2023-12-22T00:05:40;4.68;;;1.13;;
67869;SDS011;54673;52.262;6.830;2023-12-22T00:08:06;10.50;;;1.17;;
67869;SDS011;54673;52.262;6.830;2023-12-22T00:10:31;9.35;;;1.02;;
67869;SDS011;54673;52.262;6.830;2023-12-22T00:12:57;9.05;;;1.08;;
67869;SDS011;54673;52.262;6.830;2023-12-22T00:15:22;11.40;;;1.20;;
67869;SDS011;54673;52.262;6.830;2023-12-22T00:17:48;15.38;;;2.38;;
67869;SDS011;54673;52.262;6.830;2023-12-22T00:20:14;19.83;;;1.40;;
67869;SDS011;54673;52.262;6.830;2023-12-22T00:22:39;12.23;;;1.13;;
67869;SDS011;54673;52.262;6.830;2023-12-22T00:25:05;7.63;;;0.95;;
67869;SDS011;54673;52.262;6.830;2023-12-22T00:27:32;6.93;;;1.02;;
67869;SDS011;54673;52.262;6.830;2023-12-22T00:29:58;13.00;;;1.73;;
67869;SDS011;54673;52.262;6.830;2023-12-22T00:32:24;11.20;;;1.53;;
67869;SDS011;54673;52.262;6.830;2023-12-22T00:34:50;11.32;;;2.08;;
67869;SDS011;54673;52.262;6.830;2023-12-22T00:37:15;12.47;;;1.07;;
67869;SDS011;54673;52.262;6.830;2023-12-22T00:39:41;13.80;;;1.30;;
67869;SDS011;54673;52.262;6.830;2023-12-22T00:42:06;6.27;;;0.93;;
67869;SDS011;54673;52.262;6.830;2023-12-22T00:44:32;11.45;;;1.45;;
67869;SDS011;54673;52.262;6.830;2023-12-22T00:46:58;13.40;;;1.20;;
67869;SDS011;54673;52.262;6.830;2023-12-22T00:49:23;10.27;;;1.00;;
67869;SDS011;54673;52.262;6.830;2023-12-22T00:51:49;11.55;;;1.65;;
67869;SDS011;54673;52.262;6.830;2023-12-22T00:54:14;10.80;;;1.53;;
67869;SDS011;54673;52.262;6.830;2023-12-22T00:56:40;11.25;;;0.75;;
67869;SDS011;54673;52.262;6.830;2023-12-22T00:59:06;7.93;;;1.17;;
67869;SDS011;54673;52.262;6.830;2023-12-22T01:01:31;7.65;;;1.20;;
67869;SDS011;54673;52.262;6.830;2023-12-22T01:03:59;12.53;;;1.47;;
67869;SDS011;54673;52.262;6.830;2023-12-22T01:06:24;8.90;;;0.88;;
67869;SDS011;54673;52.262;6.830;2023-12-22T01:08:50;9.93;;;0.98;;
67869;SDS011;54673;52.262;6.830;2023-12-22T01:11:19;6.53;;;1.43;;
67869;SDS011;54673;52.262;6.830;2023-12-22T01:13:44;9.73;;;1.08;;
67869;SDS011;54673;52.262;6.830;2023-12-22T01:16:10;5.90;;;0.77;;
67869;SDS011;54673;52.262;6.830;2023-12-22T01:18:35;12.30;;;1.17;;
67869;SDS011;54673;52.262;6.830;2023-12-22T01:21:01;16.02;;;0.98;;
67869;SDS011;54673;52.262;6.830;2023-12-22T01:23:27;7.90;;;0.97;;
67869;SDS011;54673;52.262;6.830;2023-12-22T01:25:52;9.93;;;0.85;;
67869;SDS011;54673;52.262;6.830;2023-12-22T01:28:18;10.57;;;1.50;;
67869;SDS011;54673;52.262;6.830;2023-12-22T01:30:43;9.83;;;0.80;;
67869;SDS011;54673;52.262;6.830;2023-12-22T01:33:09;8.80;;;0.80;;
67869;SDS011;54673;52.262;6.830;2023-12-22T01:35:34;9.33;;;1.07;;
67869;SDS011;54673;52.262;6.830;2023-12-22T01:38:00;6.63;;;0.88;;
67869;SDS011;54673;52.262;6.830;2023-12-22T01:40:26;9.35;;;0.95;;
67869;SDS011;54673;52.262;6.830;2023-12-22T01:42:51;10.20;;;0.60;;
67869;SDS011;54673;52.262;6.830;2023-12-22T01:45:17;10.68;;;1.10;;
67869;SDS011;54673;52.262;6.830;2023-12-22T01:47:42;12.00;;;1.97;;
67869;SDS011;54673;52.262;6.830;2023-12-22T01:50:10;8.55;;;1.10;;
67869;SDS011;54673;52.262;6.830;2023-12-22T01:52:38;15.03;;;1.33;;
67869;SDS011;54673;52.262;6.830;2023-12-22T01:55:05;11.30;;;1.17;;
67869;SDS011;54673;52.262;6.830;2023-12-22T01:57:31;8.37;;;0.73;;
67869;SDS011;54673;52.262;6.830;2023-12-22T01:59:59;6.35;;;0.93;;
67869;SDS011;54673;52.262;6.830;2023-12-22T02:02:25;13.30;;;1.13;;
67869;SDS011;54673;52.262;6.830;2023-12-22T02:04:52;8.43;;;0.70;;
67869;SDS011;54673;52.262;6.830;2023-12-22T02:07:18;12.20;;;0.95;;
67869;SDS011;54673;52.262;6.830;2023-12-22T02:09:44;7.30;;;0.90;;
67869;SDS011;54673;52.262;6.830;2023-12-22T02:12:10;12.45;;;0.85;;
67869;SDS011;54673;52.262;6.830;2023-12-22T02:14:35;7.73;;;0.70;;
67869;SDS011;54673;52.262;6.830;2023-12-22T02:22:07;5.10;;;0.68;;
67869;SDS011;54673;52.262;6.830;2023-12-22T02:24:33;10.33;;;0.77;;
67869;SDS011;54673;52.262;6.830;2023-12-22T02:27:03;12.05;;;0.70;;
67869;SDS011;54673;52.262;6.830;2023-12-22T02:29:30;4.82;;;0.70;;
67869;SDS011;54673;52.262;6.830;2023-12-22T02:32:00;9.18;;;0.80;;
67869;SDS011;54673;52.262;6.830;2023-12-22T02:34:30;7.32;;;0.85;;
67869;SDS011;54673;52.262;6.830;2023-12-22T02:36:58;5.77;;;0.70;;
67869;SDS011;54673;52.262;6.830;2023-12-22T02:39:24;8.10;;;0.82;;
67869;SDS011;54673;52.262;6.830;2023-12-22T02:41:50;3.03;;;0.70;;
67869;SDS011;54673;52.262;6.830;2023-12-22T02:44:16;1.38;;;0.40;;
67869;SDS011;54673;52.262;6.830;2023-12-22T02:46:42;6.60;;;0.50;;
67869;SDS011;54673;52.262;6.830;2023-12-22T02:49:08;5.20;;;0.40;;
67869;SDS011;54673;52.262;6.830;2023-12-22T02:51:34;3.60;;;0.47;;
67869;SDS011;54673;52.262;6.830;2023-12-22T02:53:59;4.27;;;0.80;;
67869;SDS011;54673;52.262;6.830;2023-12-22T02:56:25;9.23;;;0.50;;
67869;SDS011;54673;52.262;6.830;2023-12-22T02:58:50;1.55;;;0.40;;
67869;SDS011;54673;52.262;6.830;2023-12-22T03:01:16;9.87;;;0.60;;
67869;SDS011;54673;52.262;6.830;2023-12-22T03:03:41;3.63;;;0.40;;
67869;SDS011;54673;52.262;6.830;2023-12-22T03:06:07;6.13;;;0.50;;
67869;SDS011;54673;52.262;6.830;2023-12-22T03:08:33;3.05;;;0.50;;
67869;SDS011;54673;52.262;6.830;2023-12-22T03:10:58;2.30;;;0.30;;
67869;SDS011;54673;52.262;6.830;2023-12-22T03:13:24;1.83;;;0.50;;
67869;SDS011;54673;52.262;6.830;2023-12-22T03:15:49;2.80;;;0.30;;
67869;SDS011;54673;52.262;6.830;2023-12-22T03:18:15;9.80;;;0.60;;
67869;SDS011;54673;52.262;6.830;2023-12-22T03:20:40;5.53;;;0.30;;
67869;SDS011;54673;52.262;6.830;2023-12-22T03:23:06;2.17;;;0.30;;
67869;SDS011;54673;52.262;6.830;2023-12-22T03:25:31;3.43;;;0.40;;
67869;SDS011;54673;52.262;6.830;2023-12-22T03:27:57;2.83;;;0.30;;
67869;SDS011;54673;52.262;6.830;2023-12-22T03:30:22;4.47;;;0.30;;
67869;SDS011;54673;52.262;6.830;2023-12-22T03:32:48;6.00;;;0.47;;
67869;SDS011;54673;52.262;6.830;2023-12-22T03:35:14;11.80;;;0.90;;
67869;SDS011;54673;52.262;6.830;2023-12-22T03:37:39;3.83;;;0.40;;
67869;SDS011;54673;52.262;6.830;2023-12-22T03:40:05;4.70;;;0.73;;
67869;SDS011;54673;52.262;6.830;2023-12-22T03:42:31;3.17;;;0.50;;
67869;SDS011;54673;52.262;6.830;2023-12-22T03:44:57;2.70;;;0.47;;
67869;SDS011;54673;52.262;6.830;2023-12-22T03:47:22;2.10;;;0.40;;
67869;SDS011;54673;52.262;6.830;2023-12-22T03:49:48;5.82;;;0.45;;
67869;SDS011;54673;52.262;6.830;2023-12-22T03:52:13;5.53;;;0.47;;
67869;SDS011;54673;52.262;6.830;2023-12-22T03:54:39;3.13;;;0.30;;
67869;SDS011;54673;52.262;6.830;2023-12-22T03:57:05;5.40;;;0.80;;
67869;SDS011;54673;52.262;6.830;2023-12-22T03:59:30;9.18;;;0.63;;
67869;SDS011;54673;52.262;6.830;2023-12-22T04:01:56;10.43;;;0.90;;
67869;SDS011;54673;52.262;6.830;2023-12-22T04:04:23;7.43;;;0.63;;
67869;SDS011;54673;52.262;6.830;2023-12-22T04:06:49;5.20;;;0.60;;
67869;SDS011;54673;52.262;6.830;2023-12-22T04:09:15;2.95;;;0.30;;
67869;SDS011;54673;52.262;6.830;2023-12-22T04:11:40;5.73;;;0.57;;
67869;SDS011;54673;52.262;6.830;2023-12-22T04:14:06;6.15;;;0.50;;
67869;SDS011;54673;52.262;6.830;2023-12-22T04:16:32;9.40;;;0.60;;
67869;SDS011;54673;52.262;6.830;2023-12-22T04:18:58;4.70;;;0.40;;
67869;SDS011;54673;52.262;6.830;2023-12-22T04:21:23;4.97;;;0.60;;
67869;SDS011;54673;52.262;6.830;2023-12-22T04:23:49;11.63;;;0.63;;
67869;SDS011;54673;52.262;6.830;2023-12-22T04:26:14;3.45;;;0.50;;
67869;SDS011;54673;52.262;6.830;2023-12-22T04:28:40;4.70;;;0.40;;
67869;SDS011;54673;52.262;6.830;2023-12-22T04:31:05;3.93;;;1.00;;
67869;SDS011;54673;52.262;6.830;2023-12-22T04:33:31;8.23;;;1.15;;
67869;SDS011;54673;52.262;6.830;2023-12-22T04:35:57;5.53;;;0.80;;
67869;SDS011;54673;52.262;6.830;2023-12-22T04:38:22;2.45;;;0.65;;
67869;SDS011;54673;52.262;6.830;2023-12-22T04:40:48;13.40;;;0.90;;
67869;SDS011;54673;52.262;6.830;2023-12-22T04:43:13;6.80;;;0.73;;
67869;SDS011;54673;52.262;6.830;2023-12-22T04:45:39;10.70;;;0.77;;
67869;SDS011;54673;52.262;6.830;2023-12-22T04:48:04;12.60;;;1.70;;
67869;SDS011;54673;52.262;6.830;2023-12-22T04:50:31;4.45;;;0.50;;
67869;SDS011;54673;52.262;6.830;2023-12-22T04:52:56;3.83;;;0.35;;
67869;SDS011;54673;52.262;6.830;2023-12-22T04:55:22;4.33;;;0.70;;
67869;SDS011;54673;52.262;6.830;2023-12-22T04:57:47;6.28;;;0.80;;
67869;SDS011;54673;52.262;6.830;2023-12-22T05:00:13;7.90;;;1.20;;
67869;SDS011;54673;52.262;6.830;2023-12-22T05:02:39;4.93;;;0.88;;
67869;SDS011;54673;52.262;6.830;2023-12-22T05:05:04;7.65;;;0.80;;
67869;SDS011;54673;52.262;6.830;2023-12-22T05:07:30;5.47;;;0.70;;
67869;SDS011;54673;52.262;6.830;2023-12-22T05:09:56;3.47;;;0.55;;
67869;SDS011;54673;52.262;6.830;2023-12-22T05:12:22;5.43;;;0.73;;
67869;SDS011;54673;52.262;6.830;2023-12-22T05:14:47;4.03;;;0.82;;
67869;SDS011;54673;52.262;6.830;2023-12-22T05:17:13;4.97;;;1.00;;
67869;SDS011;54673;52.262;6.830;2023-12-22T05:19:38;11.90;;;1.03;;
67869;SDS011;54673;52.262;6.830;2023-12-22T05:22:04;6.88;;;0.60;;
67869;SDS011;54673;52.262;6.830;2023-12-22T05:24:30;11.93;;;1.37;;
67869;SDS011;54673;52.262;6.830;2023-12-22T05:26:55;7.15;;;0.98;;
67869;SDS011;54673;52.262;6.830;2023-12-22T05:29:21;7.90;;;0.85;;
67869;SDS011;54673;52.262;6.830;2023-12-22T05:31:46;12.87;;;0.73;;
67869;SDS011;54673;52.262;6.830;2023-12-22T05:34:12;5.65;;;0.68;;
67869;SDS011;54673;52.262;6.830;2023-12-22T05:36:37;3.50;;;0.30;;
67869;SDS011;54673;52.262;6.830;2023-12-22T05:39:03;9.13;;;0.90;;
67869;SDS011;54673;52.262;6.830;2023-12-22T05:41:29;10.02;;;0.90;;
67869;SDS011;54673;52.262;6.830;2023-12-22T05:43:54;4.07;;;0.70;;
67869;SDS011;54673;52.262;6.830;2023-12-22T05:46:20;6.60;;;0.50;;
67869;SDS011;54673;52.262;6.830;2023-12-22T05:48:45;8.65;;;0.70;;
67869;SDS011;54673;52.262;6.830;2023-12-22T05:51:11;14.87;;;0.80;;
67869;SDS011;54673;52.262;6.830;2023-12-22T05:53:38;5.40;;;0.90;;
67869;SDS011;54673;52.262;6.830;2023-12-22T05:56:05;6.43;;;1.17;;
67869;SDS011;54673;52.262;6.830;2023-12-22T05:58:42;10.18;;;1.00;;
67869;SDS011;54673;52.262;6.830;2023-12-22T06:01:07;8.67;;;0.60;;
67869;SDS011;54673;52.262;6.830;2023-12-22T06:03:33;6.72;;;0.93;;
67869;SDS011;54673;52.262;6.830;2023-12-22T06:06:00;7.57;;;0.63;;
67869;SDS011;54673;52.262;6.830;2023-12-22T06:08:25;8.05;;;0.45;;
67869;SDS011;54673;52.262;6.830;2023-12-22T06:10:51;7.60;;;1.00;;
67869;SDS011;54673;52.262;6.830;2023-12-22T06:13:16;11.37;;;1.10;;
67869;SDS011;54673;52.262;6.830;2023-12-22T06:15:42;7.00;;;0.82;;
67869;SDS011;54673;52.262;6.830;2023-12-22T06:18:08;4.73;;;0.63;;
67869;SDS011;54673;52.262;6.830;2023-12-22T06:20:33;7.20;;;0.40;;
67869;SDS011;54673;52.262;6.830;2023-12-22T06:22:59;12.60;;;0.90;;
67869;SDS011;54673;52.262;6.830;2023-12-22T06:25:25;8.57;;;1.13;;
67869;SDS011;54673;52.262;6.830;2023-12-22T06:27:50;10.75;;;0.70;;
67869;SDS011;54673;52.262;6.830;2023-12-22T06:30:16;5.78;;;0.93;;
67869;SDS011;54673;52.262;6.830;2023-12-22T06:32:41;8.23;;;0.83;;
67869;SDS011;54673;52.262;6.830;2023-12-22T06:35:07;7.53;;;0.85;;
67869;SDS011;54673;52.262;6.830;2023-12-22T06:37:34;8.50;;;0.88;;
67869;SDS011;54673;52.262;6.830;2023-12-22T06:40:00;21.37;;;1.33;;
67869;SDS011;54673;52.262;6.830;2023-12-22T06:42:26;9.60;;;1.02;;
67869;SDS011;54673;52.262;6.830;2023-12-22T06:44:51;12.90;;;1.10;;
67869;SDS011;54673;52.262;6.830;2023-12-22T06:47:17;10.03;;;1.37;;
67869;SDS011;54673;52.262;6.830;2023-12-22T06:49:42;5.38;;;0.80;;
67869;SDS011;54673;52.262;6.830;2023-12-22T06:52:09;8.47;;;0.80;;
67869;SDS011;54673;52.262;6.830;2023-12-22T06:54:35;7.90;;;0.98;;
67869;SDS011;54673;52.262;6.830;2023-12-22T06:57:01;8.80;;;0.90;;
67869;SDS011;54673;52.262;6.830;2023-12-22T06:59:27;7.30;;;0.55;;
67869;SDS011;54673;52.262;6.830;2023-12-22T07:01:52;11.23;;;1.60;;
67869;SDS011;54673;52.262;6.830;2023-12-22T07:04:18;9.85;;;0.70;;
67869;SDS011;54673;52.262;6.830;2023-12-22T07:06:43;8.75;;;1.05;;
67869;SDS011;54673;52.262;6.830;2023-12-22T07:11:48;12.35;;;1.10;;
67869;SDS011;54673;52.262;6.830;2023-12-22T07:14:24;10.15;;;0.90;;
67869;SDS011;54673;52.262;6.830;2023-12-22T07:16:49;22.20;;;1.70;;
67869;SDS011;54673;52.262;6.830;2023-12-22T07:19:15;4.75;;;0.90;;
67869;SDS011;54673;52.262;6.830;2023-12-22T07:21:41;9.03;;;0.83;;
67869;SDS011;54673;52.262;6.830;2023-12-22T07:24:06;10.50;;;1.10;;
67869;SDS011;54673;52.262;6.830;2023-12-22T07:26:32;5.70;;;0.50;;
67869;SDS011;54673;52.262;6.830;2023-12-22T07:28:58;11.40;;;1.10;;
67869;SDS011;54673;52.262;6.830;2023-12-22T07:31:24;12.50;;;0.87;;
67869;SDS011;54673;52.262;6.830;2023-12-22T07:33:50;4.32;;;0.47;;
67869;SDS011;54673;52.262;6.830;2023-12-22T07:36:17;7.57;;;1.13;;
67869;SDS011;54673;52.262;6.830;2023-12-22T07:38:46;6.60;;;0.70;;
67869;SDS011;54673;52.262;6.830;2023-12-22T07:41:12;6.05;;;0.60;;
67869;SDS011;54673;52.262;6.830;2023-12-22T07:43:37;5.68;;;0.80;;
67869;SDS011;54673;52.262;6.830;2023-12-22T07:46:03;6.50;;;0.63;;
67869;SDS011;54673;52.262;6.830;2023-12-22T07:48:28;11.10;;;0.73;;
67869;SDS011;54673;52.262;6.830;2023-12-22T07:50:54;8.40;;;0.60;;
67869;SDS011;54673;52.262;6.830;2023-12-22T07:53:19;12.50;;;2.20;;
67869;SDS011;54673;52.262;6.830;2023-12-22T07:55:46;7.45;;;0.60;;
67869;SDS011;54673;52.262;6.830;2023-12-22T07:58:12;6.23;;;0.60;;
67869;SDS011;54673;52.262;6.830;2023-12-22T08:00:38;4.60;;;0.60;;
67869;SDS011;54673;52.262;6.830;2023-12-22T08:03:04;6.57;;;0.57;;
67869;SDS011;54673;52.262;6.830;2023-12-22T08:05:33;5.10;;;0.70;;
67869;SDS011;54673;52.262;6.830;2023-12-22T08:07:58;4.87;;;0.50;;
67869;SDS011;54673;52.262;6.830;2023-12-22T08:10:24;3.85;;;0.60;;
67869;SDS011;54673;52.262;6.830;2023-12-22T08:12:51;7.18;;;0.77;;
67869;SDS011;54673;52.262;6.830;2023-12-22T08:15:17;5.45;;;0.45;;
67869;SDS011;54673;52.262;6.830;2023-12-22T08:17:46;5.55;;;0.82;;
67869;SDS011;54673;52.262;6.830;2023-12-22T08:20:16;3.87;;;0.33;;
67869;SDS011;54673;52.262;6.830;2023-12-22T08:22:45;5.03;;;0.50;;
67869;SDS011;54673;52.262;6.830;2023-12-22T08:25:11;2.20;;;0.40;;
67869;SDS011;54673;52.262;6.830;2023-12-22T08:27:37;1.30;;;0.50;;
67869;SDS011;54673;52.262;6.830;2023-12-22T08:30:03;3.67;;;0.75;;
67869;SDS011;54673;52.262;6.830;2023-12-22T08:32:29;7.30;;;0.70;;
67869;SDS011;54673;52.262;6.830;2023-12-22T08:34:55;4.35;;;0.65;;
67869;SDS011;54673;52.262;6.830;2023-12-22T08:37:21;3.47;;;0.40;;
67869;SDS011;54673;52.262;6.830;2023-12-22T08:39:47;7.03;;;0.40;;
67869;SDS011;54673;52.262;6.830;2023-12-22T08:42:12;3.07;;;0.60;;
67869;SDS011;54673;52.262;6.830;2023-12-22T08:44:38;7.15;;;0.63;;
67869;SDS011;54673;52.262;6.830;2023-12-22T08:47:04;4.93;;;0.60;;
67869;SDS011;54673;52.262;6.830;2023-12-22T08:49:30;4.50;;;0.40;;
67869;SDS011;54673;52.262;6.830;2023-12-22T08:51:55;1.70;;;0.20;;
67869;SDS011;54673;52.262;6.830;2023-12-22T08:54:21;0.77;;;0.30;;
67869;SDS011;54673;52.262;6.830;2023-12-22T08:56:47;2.78;;;0.68;;
67869;SDS011;54673;52.262;6.830;2023-12-22T08:59:13;3.67;;;0.47;;
67869;SDS011;54673;52.262;6.830;2023-12-22T09:01:38;2.25;;;0.30;;
67869;SDS011;54673;52.262;6.830;2023-12-22T09:04:06;4.23;;;0.47;;
67869;SDS011;54673;52.262;6.830;2023-12-22T09:06:32;3.78;;;0.43;;
67869;SDS011;54673;52.262;6.830;2023-12-22T09:08:58;4.67;;;0.50;;
67869;SDS011;54673;52.262;6.830;2023-12-22T09:11:24;4.90;;;0.50;;
67869;SDS011;54673;52.262;6.830;2023-12-22T09:13:50;2.13;;;0.60;;
67869;SDS011;54673;52.262;6.830;2023-12-22T09:16:20;4.90;;;0.60;;
67869;SDS011;54673;52.262;6.830;2023-12-22T09:18:47;6.80;;;0.68;;
67869;SDS011;54673;52.262;6.830;2023-12-22T09:21:13;2.20;;;0.30;;
67869;SDS011;54673;52.262;6.830;2023-12-22T09:23:39;4.88;;;0.50;;
67869;SDS011;54673;52.262;6.830;2023-12-22T09:26:05;4.60;;;0.53;;
67869;SDS011;54673;52.262;6.830;2023-12-22T09:28:31;2.63;;;0.40;;
67869;SDS011;54673;52.262;6.830;2023-12-22T09:30:56;3.25;;;0.73;;
67869;SDS011;54673;52.262;6.830;2023-12-22T09:33:22;6.07;;;0.85;;
67869;SDS011;54673;52.262;6.830;2023-12-22T09:35:48;1.75;;;0.50;;
67869;SDS011;54673;52.262;6.830;2023-12-22T09:38:14;3.33;;;0.40;;
67869;SDS011;54673;52.262;6.830;2023-12-22T09:40:40;3.78;;;0.43;;
67869;SDS011;54673;52.262;6.830;2023-12-22T09:43:07;4.10;;;0.90;;
67869;SDS011;54673;52.262;6.830;2023-12-22T09:45:34;6.63;;;0.60;;
67869;SDS011;54673;52.262;6.830;2023-12-22T09:48:02;6.90;;;1.20;;
67869;SDS011;54673;52.262;6.830;2023-12-22T09:50:30;6.13;;;0.60;;
67869;SDS011;54673;52.262;6.830;2023-12-22T09:52:57;6.10;;;0.60;;
67869;SDS011;54673;52.262;6.830;2023-12-22T09:55:25;2.87;;;0.47;;
67869;SDS011;54673;52.262;6.830;2023-12-22T09:57:52;3.25;;;0.68;;
67869;SDS011;54673;52.262;6.830;2023-12-22T10:00:22;5.45;;;0.90;;
67869;SDS011;54673;52.262;6.830;2023-12-22T10:02:54;4.53;;;0.80;;
67869;SDS011;54673;52.262;6.830;2023-12-22T10:05:20;7.05;;;0.82;;
67869;SDS011;54673;52.262;6.830;2023-12-22T10:07:46;8.20;;;1.00;;
67869;SDS011;54673;52.262;6.830;2023-12-22T10:10:13;3.42;;;0.63;;
67869;SDS011;54673;52.262;6.830;2023-12-22T10:12:40;2.38;;;0.70;;
67869;SDS011;54673;52.262;6.830;2023-12-22T10:15:09;4.93;;;0.60;;
67869;SDS011;54673;52.262;6.830;2023-12-22T10:17:37;6.30;;;0.90;;
67869;SDS011;54673;52.262;6.830;2023-12-22T10:20:04;3.57;;;0.87;;
67869;SDS011;54673;52.262;6.830;2023-12-22T10:22:30;7.82;;;0.70;;
67869;SDS011;54673;52.262;6.830;2023-12-22T10:24:55;3.80;;;0.50;;
67869;SDS011;54673;52.262;6.830;2023-12-22T10:27:21;3.17;;;0.40;;
67869;SDS011;54673;52.262;6.830;2023-12-22T10:29:48;5.82;;;0.75;;
67869;SDS011;54673;52.262;6.830;2023-12-22T10:32:15;2.17;;;0.50;;
67869;SDS011;54673;52.262;6.830;2023-12-22T10:34:41;7.28;;;0.70;;
67869;SDS011;54673;52.262;6.830;2023-12-22T10:37:07;3.17;;;0.50;;
67869;SDS011;54673;52.262;6.830;2023-12-22T10:39:35;3.20;;;0.40;;
67869;SDS011;54673;52.262;6.830;2023-12-22T10:42:02;5.30;;;0.60;;
67869;SDS011;54673;52.262;6.830;2023-12-22T10:44:28;5.43;;;0.63;;
67869;SDS011;54673;52.262;6.830;2023-12-22T10:46:55;4.80;;;0.70;;
67869;SDS011;54673;52.262;6.830;2023-12-22T10:49:22;3.73;;;0.53;;
67869;SDS011;54673;52.262;6.830;2023-12-22T10:51:49;4.30;;;0.40;;
67869;SDS011;54673;52.262;6.830;2023-12-22T10:54:15;2.15;;;0.40;;
67869;SDS011;54673;52.262;6.830;2023-12-22T10:56:42;2.63;;;0.60;;
67869;SDS011;54673;52.262;6.830;2023-12-22T10:59:08;2.17;;;0.50;;
67869;SDS011;54673;52.262;6.830;2023-12-22T11:01:37;2.00;;;0.50;;
67869;SDS011;54673;52.262;6.830;2023-12-22T11:04:12;2.53;;;0.40;;
67869;SDS011;54673;52.262;6.830;2023-12-22T11:06:42;1.98;;;0.40;;
67869;SDS011;54673;52.262;6.830;2023-12-22T11:09:09;3.17;;;0.47;;
67869;SDS011;54673;52.262;6.830;2023-12-22T11:11:38;0.50;;;0.30;;
67869;SDS011;54673;52.262;6.830;2023-12-22T11:14:07;1.27;;;0.50;;
67869;SDS011;54673;52.262;6.830;2023-12-22T11:16:35;2.78;;;0.35;;
67869;SDS011;54673;52.262;6.830;2023-12-22T11:19:01;1.00;;;0.40;;
67869;SDS011;54673;52.262;6.830;2023-12-22T11:21:28;2.93;;;0.37;;
67869;SDS011;54673;52.262;6.830;2023-12-22T11:23:55;0.75;;;0.30;;
67869;SDS011;54673;52.262;6.830;2023-12-22T11:26:25;2.50;;;0.50;;
67869;SDS011;54673;52.262;6.830;2023-12-22T11:28:51;1.27;;;0.30;;
67869;SDS011;54673;52.262;6.830;2023-12-22T11:31:17;1.40;;;0.30;;
67869;SDS011;54673;52.262;6.830;2023-12-22T11:33:49;0.63;;;0.33;;
67869;SDS011;54673;52.262;6.830;2023-12-22T11:36:16;1.60;;;0.40;;
67869;SDS011;54673;52.262;6.830;2023-12-22T11:38:44;2.67;;;0.40;;
67869;SDS011;54673;52.262;6.830;2023-12-22T11:41:22;3.42;;;0.30;;
67869;SDS011;54673;52.262;6.830;2023-12-22T11:43:50;1.20;;;0.30;;
67869;SDS011;54673;52.262;6.830;2023-12-22T11:46:18;1.27;;;0.30;;
67869;SDS011;54673;52.262;6.830;2023-12-22T11:48:47;2.58;;;0.30;;
67869;SDS011;54673;52.262;6.830;2023-12-22T11:51:14;0.70;;;0.30;;
67869;SDS011;54673;52.262;6.830;2023-12-22T11:53:40;0.85;;;0.30;;
67869;SDS011;54673;52.262;6.830;2023-12-22T11:56:07;2.50;;;0.20;;
67869;SDS011;54673;52.262;6.830;2023-12-22T12:01:12;2.00;;;0.30;;
67869;SDS011;54673;52.262;6.830;2023-12-22T12:03:42;1.47;;;0.30;;
67869;SDS011;54673;52.262;6.830;2023-12-22T12:08:38;1.67;;;0.30;;
67869;SDS011;54673;52.262;6.830;2023-12-22T12:11:05;1.60;;;0.60;;
67869;SDS011;54673;52.262;6.830;2023-12-22T12:13:32;2.60;;;0.68;;
67869;SDS011;54673;52.262;6.830;2023-12-22T12:15:59;0.27;;;0.20;;
67869;SDS011;54673;52.262;6.830;2023-12-22T12:18:32;1.63;;;0.30;;
67869;SDS011;54673;52.262;6.830;2023-12-22T12:20:59;0.40;;;0.20;;
67869;SDS011;54673;52.262;6.830;2023-12-22T12:23:26;1.10;;;0.35;;
67869;SDS011;54673;52.262;6.830;2023-12-22T12:25:55;1.10;;;0.30;;
67869;SDS011;54673;52.262;6.830;2023-12-22T12:28:25;0.70;;;0.30;;
67869;SDS011;54673;52.262;6.830;2023-12-22T12:33:25;2.15;;;0.30;;
67869;SDS011;54673;52.262;6.830;2023-12-22T12:35:52;0.25;;;0.15;;
67869;SDS011;54673;52.262;6.830;2023-12-22T12:39:07;0.50;;;0.30;;
67869;SDS011;54673;52.262;6.830;2023-12-22T12:41:41;0.90;;;0.30;;
67869;SDS011;54673;52.262;6.830;2023-12-22T12:44:11;3.33;;;0.40;;
67869;SDS011;54673;52.262;6.830;2023-12-22T12:46:37;1.23;;;0.40;;
67869;SDS011;54673;52.262;6.830;2023-12-22T12:49:07;0.45;;;0.40;;
67869;SDS011;54673;52.262;6.830;2023-12-22T12:51:37;0.82;;;0.30;;
67869;SDS011;54673;52.262;6.830;2023-12-22T12:54:12;0.77;;;0.33;;
67869;SDS011;54673;52.262;6.830;2023-12-22T12:56:40;2.97;;;0.40;;
67869;SDS011;54673;52.262;6.830;2023-12-22T12:59:07;1.83;;;0.50;;
67869;SDS011;54673;52.262;6.830;2023-12-22T13:01:37;3.65;;;0.50;;
67869;SDS011;54673;52.262;6.830;2023-12-22T13:04:09;1.88;;;0.40;;
67869;SDS011;54673;52.262;6.830;2023-12-22T13:06:42;2.87;;;0.40;;
67869;SDS011;54673;52.262;6.830;2023-12-22T13:09:14;0.85;;;0.30;;
67869;SDS011;54673;52.262;6.830;2023-12-22T13:11:42;1.35;;;0.30;;
67869;SDS011;54673;52.262;6.830;2023-12-22T13:14:21;1.30;;;0.40;;
67869;SDS011;54673;52.262;6.830;2023-12-22T13:17:22;1.65;;;0.38;;
67869;SDS011;54673;52.262;6.830;2023-12-22T13:19:58;1.27;;;0.30;;
67869;SDS011;54673;52.262;6.830;2023-12-22T13:23:18;2.05;;;0.30;;
67869;SDS011;54673;52.262;6.830;2023-12-22T13:25:44;3.15;;;0.50;;
67869;SDS011;54673;52.262;6.830;2023-12-22T13:28:11;1.42;;;0.50;;
67869;SDS011;54673;52.262;6.830;2023-12-22T13:30:37;2.00;;;0.63;;
67869;SDS011;54673;52.262;6.830;2023-12-22T13:33:07;0.80;;;0.20;;
67869;SDS011;54673;52.262;6.830;2023-12-22T13:35:33;2.38;;;0.30;;
67869;SDS011;54673;52.262;6.830;2023-12-22T13:38:01;0.30;;;0.20;;
67869;SDS011;54673;52.262;6.830;2023-12-22T13:40:31;0.30;;;0.22;;
67869;SDS011;54673;52.262;6.830;2023-12-22T13:42:57;2.15;;;0.30;;
67869;SDS011;54673;52.262;6.830;2023-12-22T13:45:24;0.97;;;0.30;;
67869;SDS011;54673;52.262;6.830;2023-12-22T13:47:50;1.45;;;0.30;;
67869;SDS011;54673;52.262;6.830;2023-12-22T13:50:16;1.38;;;0.40;;
67869;SDS011;54673;52.262;6.830;2023-12-22T13:52:43;0.45;;;0.20;;
67869;SDS011;54673;52.262;6.830;2023-12-22T13:55:12;2.08;;;0.40;;
67869;SDS011;54673;52.262;6.830;2023-12-22T13:57:39;1.87;;;0.30;;
67869;SDS011;54673;52.262;6.830;2023-12-22T14:02:44;1.58;;;0.30;;
67869;SDS011;54673;52.262;6.830;2023-12-22T14:05:10;0.55;;;0.20;;
67869;SDS011;54673;52.262;6.830;2023-12-22T14:07:36;3.15;;;0.55;;
67869;SDS011;54673;52.262;6.830;2023-12-22T14:10:06;1.20;;;0.40;;
67869;SDS011;54673;52.262;6.830;2023-12-22T14:12:32;1.52;;;0.55;;
67869;SDS011;54673;52.262;6.830;2023-12-22T14:14:58;1.40;;;0.30;;
67869;SDS011;54673;52.262;6.830;2023-12-22T14:17:24;0.73;;;0.30;;
67869;SDS011;54673;52.262;6.830;2023-12-22T14:19:50;1.05;;;0.30;;
67869;SDS011;54673;52.262;6.830;2023-12-22T14:22:16;2.47;;;0.47;;
67869;SDS011;54673;52.262;6.830;2023-12-22T14:24:42;0.50;;;0.28;;
67869;SDS011;54673;52.262;6.830;2023-12-22T14:27:08;1.07;;;0.40;;
67869;SDS011;54673;52.262;6.830;2023-12-22T14:29:34;0.85;;;0.60;;
67869;SDS011;54673;52.262;6.830;2023-12-22T14:32:05;0.50;;;0.30;;
67869;SDS011;54673;52.262;6.830;2023-12-22T14:34:33;2.03;;;0.40;;
67869;SDS011;54673;52.262;6.830;2023-12-22T14:36:59;0.90;;;0.30;;
67869;SDS011;54673;52.262;6.830;2023-12-22T14:39:26;2.97;;;0.40;;
67869;SDS011;54673;52.262;6.830;2023-12-22T14:41:52;1.15;;;0.63;;
67869;SDS011;54673;52.262;6.830;2023-12-22T14:44:18;4.05;;;0.55;;
67869;SDS011;54673;52.262;6.830;2023-12-22T14:46:44;1.17;;;0.40;;
67869;SDS011;54673;52.262;6.830;2023-12-22T14:49:10;3.08;;;0.70;;
67869;SDS011;54673;52.262;6.830;2023-12-22T14:51:39;1.47;;;0.53;;
67869;SDS011;54673;52.262;6.830;2023-12-22T14:54:06;1.15;;;0.30;;
67869;SDS011;54673;52.262;6.830;2023-12-22T14:56:33;1.33;;;0.30;;
67869;SDS011;54673;52.262;6.830;2023-12-22T14:58:59;2.63;;;0.40;;
67869;SDS011;54673;52.262;6.830;2023-12-22T15:01:25;3.78;;;0.40;;